.
WxDataArchive / Data Records for 2010-12-11
2010-12-10 December 2010 2010-12-12

Data Records for Saturday, 11 December 2010

Time	Temp	Chill	HIndex	Humid	Dewpt	 Wind 	HiWind	WindDir	Rain 	Barom 
-----	----	-----	------	-----	-----	------	------	-------	-----	----- 
00:00	24.7	24.7	24.7	91	22.5	0	0	---	0.00	30.089 
00:05	24.5	24.5	24.5	91	22.3	0	0	---	0.00	30.089 
00:10	24.4	24.4	24.4	90	21.9	0	0	---	0.00	30.089 
00:15	24.2	24.2	24.2	91	22.0	0	0	---	0.00	30.084 
00:20	24.2	24.2	24.2	91	22.0	0	0	---	0.00	30.084 
00:25	24.2	24.2	24.2	91	22.0	0	0	---	0.00	30.084 
00:30	24.2	24.2	24.2	91	22.0	0	0	---	0.00	30.081 
00:35	24.1	24.1	24.1	91	21.9	0	0	---	0.00	30.081 
00:40	23.9	23.9	23.9	91	21.7	0	0	---	0.00	30.081 
00:45	23.8	23.8	23.8	91	21.6	0	0	---	0.00	30.077 
00:50	23.6	23.6	23.6	91	21.4	0	0	---	0.00	30.077 
00:55	23.5	23.5	23.5	91	21.3	0	0	---	0.00	30.077 
01:00	23.3	23.3	23.3	91	21.1	0	0	---	0.00	30.079 
01:05	23.2	23.2	23.2	91	21.0	0	0	---	0.00	30.079 
01:10	23.0	23.0	23.0	91	20.8	0	0	---	0.00	30.079 
01:15	23.0	23.0	23.0	91	20.8	0	0	---	0.00	30.082 
01:20	23.2	23.2	23.2	91	21.0	0	0	---	0.00	30.082 
01:25	23.2	23.2	23.2	91	21.0	0	0	---	0.00	30.082 
01:30	23.0	23.0	23.0	91	20.8	0	0	---	0.00	30.078 
01:35	22.9	22.9	22.9	91	20.7	0	0	---	0.00	30.078 
01:40	22.9	22.9	22.9	91	20.7	0	0	---	0.00	30.078 
01:45	22.7	22.7	22.7	91	20.5	0	0	---	0.00	30.078 
01:50	22.7	22.7	22.7	91	20.5	0	0	---	0.00	30.078 
01:55	22.7	22.7	22.7	92	20.7	0	0	---	0.00	30.078 
02:00	22.9	22.9	22.9	92	20.9	0	0	---	0.00	30.078 
02:05	22.9	22.9	22.9	92	20.9	0	0	---	0.00	30.078 
02:10	22.7	22.7	22.7	92	20.7	0	0	---	0.00	30.078 
02:15	22.5	22.5	22.5	92	20.5	0	0	---	0.00	30.082 
02:20	22.4	22.4	22.4	91	20.2	0	0	---	0.00	30.082 
02:25	22.2	22.2	22.2	91	20.0	0	0	---	0.00	30.082 
02:30	22.1	22.1	22.1	92	20.1	0	0	---	0.00	30.085 
02:35	22.1	22.1	22.1	92	20.1	0	0	---	0.00	30.085 
02:40	22.1	22.1	22.1	92	20.1	0	0	---	0.00	30.085 
02:45	22.1	22.1	22.1	92	20.1	0	0	---	0.00	30.088 
02:50	21.9	21.9	21.9	92	19.9	0	0	---	0.00	30.088 
02:55	21.9	21.9	21.9	92	19.9	0	0	---	0.00	30.088 
03:00	21.9	21.9	21.9	92	19.9	0	0	---	0.00	30.083 
03:05	21.9	21.9	21.9	92	19.9	0	0	---	0.00	30.083 
03:10	22.1	22.1	22.1	92	20.1	0	0	---	0.00	30.083 
03:15	22.1	22.1	22.1	92	20.1	0	0	---	0.00	30.085 
03:20	21.9	21.9	21.9	92	19.9	0	0	---	0.00	30.085 
03:25	21.9	21.9	21.9	92	19.9	0	0	---	0.00	30.085 
03:30	21.9	21.9	21.9	92	19.9	0	0	---	0.00	30.086 
03:35	22.1	22.1	22.1	92	20.1	0	0	---	0.00	30.086 
03:40	22.2	22.2	22.2	92	20.2	0	0	---	0.00	30.086 
03:45	22.2	22.2	22.2	92	20.2	0	0	---	0.00	30.090 
03:50	22.2	22.2	22.2	92	20.2	0	0	---	0.00	30.090 
03:55	22.2	22.2	22.2	92	20.2	0	0	---	0.00	30.090 
04:00	22.2	22.2	22.2	92	20.2	0	0	---	0.00	30.089 
04:05	22.4	22.4	22.4	92	20.4	0	0	---	0.00	30.089 
04:10	22.4	22.4	22.4	92	20.4	0	0	---	0.00	30.089 
04:15	22.4	22.4	22.4	92	20.4	0	0	---	0.00	30.086 
04:20	22.4	22.4	22.4	92	20.4	0	0	---	0.00	30.086 
04:25	22.5	22.5	22.5	92	20.5	0	0	---	0.00	30.086 
04:30	22.5	22.5	22.5	92	20.5	0	0	---	0.00	30.078 
04:35	22.7	22.7	22.7	92	20.7	0	0	---	0.00	30.078 
04:40	22.7	22.7	22.7	92	20.7	0	0	---	0.00	30.078 
04:45	22.7	22.7	22.7	92	20.7	0	0	---	0.00	30.076 
04:50	22.9	22.9	22.9	92	20.9	0	0	---	0.00	30.076 
04:55	23.0	23.0	23.0	92	21.0	0	0	---	0.00	30.076 
05:00	22.9	22.9	22.9	92	20.9	0	0	---	0.00	30.076 
05:05	22.9	22.9	22.9	92	20.9	0	0	---	0.00	30.076 
05:10	23.0	23.0	23.0	92	21.0	0	0	---	0.00	30.076 
05:15	23.2	23.2	23.2	92	21.2	0	0	---	0.00	30.078 
05:20	23.3	23.3	23.3	92	21.3	0	0	---	0.00	30.078 
05:25	23.5	23.5	23.5	92	21.5	0	0	---	0.00	30.078 
05:30	23.6	23.6	23.6	92	21.6	0	0	---	0.00	30.076 
05:35	23.6	23.6	23.6	92	21.6	0	0	---	0.00	30.076 
05:40	23.8	23.8	23.8	92	21.8	0	0	---	0.00	30.076 
05:45	23.8	23.8	23.8	92	21.8	0	0	---	0.00	30.075 
05:50	23.8	23.8	23.8	92	21.8	0	0	---	0.00	30.075 
05:55	23.8	23.8	23.8	92	21.8	0	0	---	0.00	30.075 
06:00	23.9	23.9	23.9	93	22.2	0	0	---	0.00	30.074 
06:05	24.1	24.1	24.1	93	22.4	0	0	---	0.00	30.074 
06:10	24.2	24.2	24.2	93	22.5	0	0	---	0.00	30.074 
06:15	24.4	24.4	24.4	93	22.7	0	0	---	0.00	30.075 
06:20	24.4	24.4	24.4	92	22.4	0	0	---	0.00	30.075 
06:25	24.2	24.2	24.2	92	22.2	0	0	---	0.00	30.075 
06:30	24.2	24.2	24.2	93	22.5	0	0	---	0.00	30.067 
06:35	24.2	24.2	24.2	93	22.5	0	0	---	0.00	30.067 
06:40	24.4	24.4	24.4	93	22.7	0	0	---	0.00	30.067 
06:45	24.4	24.4	24.4	93	22.7	0	1	248	0.00	30.067 
06:50	24.5	24.5	24.5	93	22.8	0	0	---	0.00	30.067 
06:55	24.5	24.5	24.5	93	22.8	0	0	---	0.00	30.067 
07:00	24.5	24.5	24.5	93	22.8	0	0	---	0.00	30.067 
07:05	24.5	24.5	24.5	93	22.8	0	0	---	0.00	30.067 
07:10	24.5	24.5	24.5	92	22.5	0	0	---	0.00	30.067 
07:15	24.4	24.4	24.4	92	22.4	0	0	---	0.00	30.069 
07:20	24.4	24.4	24.4	92	22.4	0	0	---	0.00	30.069 
07:25	24.2	24.2	24.2	92	22.2	0	0	---	0.00	30.069 
07:30	24.1	24.1	24.1	92	22.1	0	0	---	0.00	30.064 
07:35	24.2	24.2	24.2	92	22.2	0	0	---	0.00	30.064 
07:40	24.2	24.2	24.2	92	22.2	0	0	---	0.00	30.064 
07:45	24.4	24.4	24.4	93	22.7	0	0	---	0.00	30.063 
07:50	24.5	24.5	24.5	93	22.8	0	1	248	0.00	30.063 
07:55	24.8	24.8	24.8	93	23.1	0	1	248	0.00	30.063 
08:00	24.8	24.8	24.8	93	23.1	0	0	---	0.00	30.062 
08:05	25.0	25.0	25.0	93	23.3	0	0	---	0.00	30.062 
08:10	25.0	25.0	25.0	92	23.0	0	0	---	0.00	30.062 
08:15	25.0	25.0	25.0	93	23.3	0	0	---	0.00	30.066 
08:20	25.0	25.0	25.0	93	23.3	0	0	---	0.00	30.066 
08:25	25.0	25.0	25.0	93	23.3	0	0	---	0.00	30.066 
08:30	25.3	25.3	25.3	93	23.6	0	1	248	0.00	30.064 
08:35	25.4	25.4	25.4	93	23.7	0	0	---	0.00	30.064 
08:40	25.6	25.6	25.6	93	23.9	0	1	248	0.00	30.064 
08:45	25.7	25.7	25.7	93	24.0	0	1	248	0.00	30.058 
08:50	26.0	26.0	26.0	93	24.3	0	1	248	0.00	30.058 
08:55	26.3	26.3	26.3	93	24.6	0	0	---	0.00	30.058 
09:00	26.6	26.6	26.6	93	24.9	0	1	248	0.00	30.053 
09:05	27.0	27.0	27.0	93	25.3	0	1	248	0.00	30.053 
09:10	27.3	27.3	27.3	93	25.5	0	2	248	0.00	30.053 
09:15	27.6	27.6	27.6	93	25.8	0	2	248	0.00	30.046 
09:20	28.1	28.1	28.1	93	26.3	0	1	248	0.00	30.046 
09:25	28.4	28.4	28.4	93	26.6	1	3	248	0.00	30.046 
09:30	28.7	28.7	28.7	93	26.9	1	3	248	0.00	30.044 
09:35	29.0	29.0	29.0	93	27.2	1	3	248	0.00	30.044 
09:40	29.3	29.3	29.3	93	27.5	2	4	90	0.00	30.044 
09:45	29.4	29.4	29.4	92	27.4	1	3	90	0.00	30.037 
09:50	29.8	29.8	29.8	92	27.8	1	4	90	0.00	30.037 
09:55	30.1	30.1	30.1	92	28.1	2	4	90	0.00	30.037 
10:00	30.6	30.6	30.6	92	28.6	1	3	90	0.00	30.027 
10:05	30.9	30.9	30.9	92	28.9	2	4	90	0.00	30.027 
10:10	31.3	31.3	31.3	92	29.3	1	4	90	0.00	30.027 
10:15	31.8	31.8	31.8	91	29.5	1	4	112	0.00	30.016 
10:20	32.2	32.2	32.2	91	29.9	2	4	112	0.00	30.016 
10:25	32.5	32.5	32.5	90	29.9	2	6	90	0.00	30.016 
10:30	32.9	32.9	32.9	89	30.0	2	5	90	0.00	30.010 
10:35	33.2	33.2	33.2	88	30.0	2	6	90	0.00	30.010 
10:40	33.5	33.5	33.5	88	30.3	1	4	90	0.00	30.010 
10:45	33.8	33.8	33.8	87	30.3	1	6	90	0.00	30.001 
10:50	34.1	34.1	34.1	86	30.4	2	4	90	0.00	30.001 
10:55	34.6	34.6	34.6	86	30.9	2	5	90	0.00	30.001 
11:00	34.9	34.9	34.9	85	30.9	2	6	90	0.00	29.984 
11:05	35.2	35.2	35.2	84	30.9	3	6	90	0.00	29.984 
11:10	35.5	35.5	35.5	83	30.9	3	7	112	0.00	29.984 
11:15	35.6	35.6	35.6	83	31.0	2	5	68	0.01	29.978 
11:20	35.9	35.9	35.9	83	31.2	1	3	22	0.00	29.978 
11:25	36.2	36.2	36.2	82	31.2	1	3	22	0.00	29.978 
11:30	36.3	36.3	36.3	81	31.0	1	3	112	0.00	29.967 
11:35	36.5	36.5	36.5	81	31.2	2	5	112	0.00	29.967 
11:40	36.8	36.8	36.8	81	31.5	2	4	112	0.00	29.967 
11:45	36.9	36.9	36.9	81	31.6	3	6	90	0.00	29.952 
11:50	37.0	37.0	37.0	81	31.7	2	7	90	0.00	29.952 
11:55	37.2	37.2	37.2	80	31.6	2	5	135	0.00	29.952 
12:00	37.3	37.3	37.3	80	31.7	2	4	90	0.00	29.943 
12:05	37.6	37.6	37.6	80	32.0	1	4	112	0.00	29.943 
12:10	37.9	37.9	37.9	80	32.3	2	5	90	0.00	29.943 
12:15	38.2	38.2	38.2	80	32.6	2	6	112	0.00	29.933 
12:20	38.3	38.3	38.3	79	32.4	3	6	112	0.00	29.933 
12:25	38.3	38.3	38.3	79	32.4	2	7	112	0.00	29.933 
12:30	38.5	38.5	38.5	79	32.6	1	4	68	0.00	29.929 
12:35	38.8	38.8	38.8	79	32.9	1	4	135	0.00	29.929 
12:40	38.9	38.9	38.9	82	33.9	2	4	112	0.00	29.929 
12:45	39.1	39.1	39.1	79	33.1	2	5	90	0.00	29.917 
12:50	39.1	39.1	39.1	79	33.1	2	6	90	0.00	29.917 
12:55	39.3	39.3	39.3	80	33.7	2	3	90	0.00	29.917 
13:00	39.3	39.3	39.3	80	33.7	2	6	90	0.00	29.910 
13:05	39.5	39.5	39.5	80	33.9	1	3	112	0.00	29.910 
13:10	39.6	39.6	39.6	79	33.6	1	4	112	0.00	29.910 
13:15	39.5	39.5	39.5	79	33.5	2	4	90	0.00	29.895 
13:20	39.5	39.5	39.5	79	33.5	2	4	90	0.00	29.895 
13:25	39.5	39.5	39.5	79	33.5	2	9	90	0.01	29.895 
13:30	39.5	39.5	39.5	78	33.2	2	4	90	0.00	29.881 
13:35	39.5	39.5	39.5	77	32.9	2	4	90	0.00	29.881 
13:40	39.5	39.5	39.5	77	32.9	1	5	90	0.00	29.881 
13:45	39.5	39.5	39.5	76	32.6	3	5	112	0.00	29.866 
13:50	39.5	39.5	39.5	75	32.2	2	6	112	0.00	29.866 
13:55	39.5	39.5	39.5	74	31.9	2	6	90	0.00	29.866 
14:00	39.3	39.3	39.3	74	31.7	3	5	90	0.00	29.853 
14:05	39.3	39.3	39.3	74	31.7	2	4	90	0.00	29.853 
14:10	39.2	39.2	39.2	73	31.3	2	4	90	0.00	29.853 
14:15	39.1	39.1	39.1	73	31.2	2	6	90	0.00	29.847 
14:20	39.1	39.1	39.1	74	31.5	2	4	90	0.00	29.847 
14:25	39.1	39.1	39.1	74	31.5	3	5	90	0.00	29.847 
14:30	39.1	39.1	39.1	73	31.2	3	6	90	0.00	29.836 
14:35	38.9	38.9	38.9	73	31.0	3	6	90	0.00	29.836 
14:40	38.9	38.9	38.9	73	31.0	2	5	112	0.00	29.836 
14:45	38.9	38.9	38.9	73	31.0	3	8	112	0.01	29.828 
14:50	38.9	36.0	38.9	74	31.3	4	7	112	0.00	29.828 
14:55	38.8	38.8	38.8	74	31.2	3	6	112	0.00	29.828 
15:00	38.8	38.8	38.8	75	31.6	3	5	90	0.00	29.820 
15:05	38.8	38.8	38.8	75	31.6	2	5	90	0.00	29.820 
15:10	38.8	38.8	38.8	76	31.9	3	7	90	0.00	29.820 
15:15	38.8	38.8	38.8	76	31.9	3	6	112	0.00	29.808 
15:20	38.8	38.8	38.8	76	31.9	2	4	90	0.00	29.808 
15:25	38.9	38.9	38.9	76	32.0	2	5	90	0.00	29.808 
15:30	39.1	39.1	39.1	75	31.9	3	9	112	0.00	29.803 
15:35	39.2	39.2	39.2	75	32.0	3	5	90	0.00	29.803 
15:40	39.2	39.2	39.2	75	32.0	2	9	90	0.00	29.803 
15:45	39.2	39.2	39.2	75	32.0	2	5	112	0.00	29.792 
15:50	39.2	39.2	39.2	76	32.3	2	4	112	0.00	29.792 
15:55	39.3	39.3	39.3	75	32.0	3	6	112	0.00	29.792 
16:00	39.3	39.3	39.3	74	31.7	3	10	112	0.00	29.787 
16:05	39.5	39.5	39.5	74	31.9	2	6	112	0.00	29.787 
16:10	39.5	39.5	39.5	74	31.9	2	5	112	0.00	29.787 
16:15	39.6	39.6	39.6	73	31.7	3	7	112	0.00	29.783 
16:20	39.5	39.5	39.5	74	31.9	1	4	68	0.00	29.783 
16:25	39.5	39.5	39.5	73	31.6	2	6	112	0.00	29.783 
16:30	39.5	39.5	39.5	73	31.6	3	6	90	0.00	29.772 
16:35	39.5	39.5	39.5	73	31.6	1	5	68	0.00	29.772 
16:40	39.5	39.5	39.5	74	31.9	1	4	112	0.00	29.772 
16:45	39.3	39.3	39.3	75	32.0	0	2	90	0.00	29.774 
16:50	39.2	39.2	39.2	76	32.3	1	3	45	0.00	29.774 
16:55	39.1	39.1	39.1	77	32.5	1	3	112	0.00	29.774 
17:00	38.9	38.9	38.9	78	32.6	1	3	112	0.01	29.771 
17:05	38.8	38.8	38.8	79	32.9	1	2	90	0.00	29.771 
17:10	38.6	38.6	38.6	80	33.0	2	5	90	0.00	29.771 
17:15	38.6	38.6	38.6	80	33.0	2	6	90	0.00	29.757 
17:20	38.8	38.8	38.8	80	33.2	1	4	90	0.00	29.757 
17:25	38.8	38.8	38.8	81	33.5	2	5	90	0.00	29.757 
17:30	38.8	38.8	38.8	81	33.5	1	5	112	0.00	29.755 
17:35	38.6	38.6	38.6	82	33.6	2	6	90	0.00	29.755 
17:40	38.5	38.5	38.5	82	33.5	2	5	112	0.00	29.755 
17:45	38.5	38.5	38.5	83	33.8	1	4	90	0.01	29.750 
17:50	38.3	38.3	38.3	83	33.6	1	3	68	0.00	29.750 
17:55	38.3	38.3	38.3	84	33.9	2	5	68	0.00	29.750 
18:00	38.2	38.2	38.2	84	33.8	2	4	90	0.00	29.741 
18:05	38.2	38.2	38.2	85	34.1	2	4	90	0.01	29.741 
18:10	38.0	38.0	38.0	85	33.9	2	6	90	0.00	29.741 
18:15	38.0	38.0	38.0	86	34.2	1	4	112	0.00	29.738 
18:20	37.9	37.9	37.9	86	34.1	2	5	112	0.01	29.738 
18:25	37.9	37.9	37.9	87	34.4	2	5	112	0.00	29.738 
18:30	37.8	37.8	37.8	87	34.3	2	6	112	0.01	29.727 
18:35	37.8	37.8	37.8	88	34.6	2	6	90	0.00	29.727 
18:40	37.6	37.6	37.6	88	34.4	2	8	90	0.00	29.727 
18:45	37.6	37.6	37.6	88	34.4	3	7	112	0.01	29.719 
18:50	37.6	37.6	37.6	88	34.4	3	7	90	0.00	29.719 
18:55	37.6	37.6	37.6	89	34.7	3	8	90	0.01	29.719 
19:00	37.5	34.4	37.5	89	34.6	4	6	112	0.01	29.714 
19:05	37.5	37.5	37.5	89	34.6	3	6	90	0.00	29.714 
19:10	37.5	37.5	37.5	89	34.6	3	9	112	0.01	29.714 
19:15	37.5	37.5	37.5	90	34.8	3	6	112	0.00	29.703 
19:20	37.5	34.4	37.5	90	34.8	4	8	112	0.01	29.703 
19:25	37.5	34.4	37.5	90	34.8	4	12	90	0.00	29.703 
19:30	37.5	34.4	37.5	90	34.8	4	11	90	0.01	29.690 
19:35	37.5	34.4	37.5	90	34.8	4	12	112	0.01	29.690 
19:40	37.5	37.5	37.5	89	34.6	3	10	90	0.00	29.690 
19:45	37.3	37.3	37.3	90	34.6	3	10	112	0.01	29.682 
19:50	37.3	37.3	37.3	90	34.6	3	6	90	0.00	29.682 
19:55	37.3	34.2	37.3	90	34.6	4	10	90	0.01	29.682 
20:00	37.3	37.3	37.3	90	34.6	2	6	112	0.00	29.676 
20:05	37.3	37.3	37.3	90	34.6	3	9	112	0.01	29.676 
20:10	37.3	37.3	37.3	90	34.6	3	6	90	0.00	29.676 
20:15	37.3	34.2	37.3	91	34.9	4	10	112	0.01	29.666 
20:20	37.3	34.2	37.3	91	34.9	4	12	112	0.01	29.666 
20:25	37.3	34.2	37.3	91	34.9	4	12	112	0.00	29.666 
20:30	37.3	33.3	37.3	91	34.9	5	14	112	0.00	29.646 
20:35	37.3	34.2	37.3	91	34.9	4	12	112	0.01	29.646 
20:40	37.3	37.3	37.3	91	34.9	3	10	90	0.00	29.646 
20:45	37.3	37.3	37.3	91	34.9	3	8	68	0.00	29.643 
20:50	37.5	37.5	37.5	91	35.1	3	6	112	0.00	29.643 
20:55	37.5	37.5	37.5	91	35.1	3	9	112	0.01	29.643 
21:00	37.5	37.5	37.5	91	35.1	3	10	90	0.01	29.632 
21:05	37.5	37.5	37.5	92	35.4	3	7	90	0.00	29.632 
21:10	37.5	37.5	37.5	92	35.4	3	7	90	0.00	29.632 
21:15	37.5	37.5	37.5	92	35.4	3	6	90	0.01	29.620 
21:20	37.5	37.5	37.5	92	35.4	2	6	112	0.00	29.620 
21:25	37.5	37.5	37.5	92	35.4	3	10	90	0.01	29.620 
21:30	37.5	37.5	37.5	92	35.4	2	5	112	0.00	29.609 
21:35	37.5	37.5	37.5	92	35.4	3	7	90	0.00	29.609 
21:40	37.5	37.5	37.5	92	35.4	2	5	90	0.00	29.609 
21:45	37.5	37.5	37.5	93	35.7	3	7	90	0.01	29.599 
21:50	37.6	37.6	37.6	93	35.8	3	9	90	0.00	29.599 
21:55	37.8	37.8	37.8	93	36.0	2	6	90	0.00	29.599 
22:00	37.8	37.8	37.8	93	36.0	2	6	90	0.00	29.588 
22:05	37.6	37.6	37.6	93	35.8	2	10	112	0.00	29.588 
22:10	37.6	37.6	37.6	93	35.8	2	5	112	0.00	29.588 
22:15	37.6	37.6	37.6	93	35.8	2	7	90	0.00	29.575 
22:20	37.8	37.8	37.8	93	36.0	3	6	112	0.00	29.575 
22:25	37.8	37.8	37.8	93	36.0	2	5	68	0.00	29.575 
22:30	37.8	37.8	37.8	93	36.0	2	5	90	0.00	29.573 
22:35	37.8	37.8	37.8	93	36.0	2	5	90	0.00	29.573 
22:40	37.9	37.9	37.9	93	36.1	2	7	112	0.00	29.573 
22:45	37.9	37.9	37.9	93	36.1	2	5	90	0.00	29.563 
22:50	38.0	38.0	38.0	93	36.2	2	5	68	0.01	29.563 
22:55	38.0	38.0	38.0	93	36.2	2	6	90	0.00	29.563 
23:00	38.2	38.2	38.2	93	36.4	2	5	90	0.00	29.558 
23:05	38.2	38.2	38.2	93	36.4	2	7	68	0.00	29.558 
23:10	38.3	38.3	38.3	93	36.5	2	5	90	0.01	29.558 
23:15	38.5	38.5	38.5	93	36.7	2	7	90	0.00	29.551 
23:20	38.5	38.5	38.5	93	36.7	2	7	90	0.00	29.551 
23:25	38.5	38.5	38.5	93	36.7	2	10	112	0.00	29.551 
23:30	38.5	38.5	38.5	93	36.7	2	9	90	0.00	29.537 
23:35	38.5	38.5	38.5	93	36.7	2	4	112	0.00	29.537 
23:40	38.5	38.5	38.5	93	36.7	2	5	90	0.01	29.537 
23:45	38.5	38.5	38.5	93	36.7	2	5	90	0.00	29.537 
23:50	38.5	38.5	38.5	93	36.7	2	6	112	0.00	29.537 
23:55	38.5	38.5	38.5	93	36.7	2	4	90	0.00	29.537 

CoCoRaHS
IN-AL-39
A2 Web Hosting
Creative Commons License
GoDaddy
search engine by freefind advanced

loaded 2018-11-17 18:57:22 • last modified 2010-11-18 10:43:29
Privacy PolicyDisclaimer
• wx.awcolley.com is powered by PmWiki v.2002016 •
• all content (unless otherwise noted) © 2018 A W Colley